createdAt,value
2023-04-11T00:01:11.544Z,9.66
2023-04-11T00:03:39.941Z,9.67
2023-04-11T00:06:08.880Z,9.65
2023-04-11T00:08:37.223Z,9.72
2023-04-11T00:11:05.811Z,9.70
2023-04-11T00:13:34.508Z,9.72
2023-04-11T00:16:05.731Z,9.70
2023-04-11T00:18:36.255Z,9.70
2023-04-11T00:21:05.488Z,9.70
2023-04-11T00:23:33.426Z,9.65
2023-04-11T00:26:01.400Z,9.66
2023-04-11T00:28:29.352Z,9.68
2023-04-11T00:30:57.311Z,9.69
2023-04-11T00:33:26.630Z,9.68
2023-04-11T00:35:54.673Z,9.68
2023-04-11T00:38:22.565Z,9.66
2023-04-11T00:40:50.682Z,9.61
2023-04-11T00:43:18.597Z,9.60
2023-04-11T00:45:48.026Z,9.66
2023-04-11T00:48:16.798Z,9.57
2023-04-11T00:50:46.665Z,9.57
2023-04-11T00:53:14.672Z,9.64
2023-04-11T00:55:43.204Z,9.53
2023-04-11T00:58:11.632Z,9.56
2023-04-11T01:00:39.737Z,9.56
2023-04-11T01:03:08.434Z,9.58
2023-04-11T01:05:36.811Z,9.53
2023-04-11T01:08:06.372Z,9.58
2023-04-11T01:10:34.535Z,9.56
2023-04-11T01:13:02.795Z,9.56
2023-04-11T01:15:31.041Z,9.58
2023-04-11T01:18:02.130Z,9.56
2023-04-11T01:20:31.903Z,9.55
2023-04-11T01:23:00.453Z,9.52
2023-04-11T01:25:29.857Z,9.48
2023-04-11T01:27:58.239Z,9.46
2023-04-11T01:30:26.220Z,9.43
2023-04-11T01:32:54.171Z,9.47
2023-04-11T01:35:22.269Z,9.45
2023-04-11T01:37:50.178Z,9.42
2023-04-11T01:40:21.401Z,9.42
2023-04-11T01:42:51.905Z,9.45
2023-04-11T01:45:20.359Z,9.42
2023-04-11T01:47:50.723Z,9.42
2023-04-11T01:50:18.935Z,9.41
2023-04-11T01:52:46.850Z,9.40
2023-04-11T01:55:14.770Z,9.42
2023-04-11T01:57:42.694Z,9.44
2023-04-11T02:00:13.988Z,9.47
2023-04-11T02:02:42.255Z,9.46
2023-04-11T02:05:10.601Z,9.46
2023-04-11T02:07:38.686Z,9.47
2023-04-11T02:10:08.042Z,9.48
2023-04-11T02:12:35.970Z,9.48
2023-04-11T02:15:04.053Z,9.48
2023-04-11T02:17:33.359Z,9.46
2023-04-11T02:20:01.807Z,9.50
2023-04-11T02:22:29.853Z,9.50
2023-04-11T02:24:57.793Z,9.55
2023-04-11T02:27:25.730Z,9.57
2023-04-11T02:29:53.624Z,9.61
2023-04-11T02:32:21.650Z,9.58
2023-04-11T02:34:53.308Z,9.30
2023-04-11T02:37:21.216Z,8.80
2023-04-11T02:39:49.113Z,8.78
2023-04-11T02:42:16.991Z,8.65
2023-04-11T02:44:44.932Z,8.79
2023-04-11T02:47:12.808Z,8.56
2023-04-11T02:49:41.895Z,8.63
2023-04-11T02:52:11.244Z,8.53
2023-04-11T02:54:39.137Z,8.68
2023-04-11T02:57:07.065Z,8.76
2023-04-11T02:59:34.951Z,8.46
2023-04-11T03:02:03.185Z,8.43
2023-04-11T03:04:31.481Z,8.37
2023-04-11T03:06:59.475Z,8.31
2023-04-11T03:09:28.775Z,8.33
2023-04-11T03:11:57.619Z,8.24
2023-04-11T03:14:25.638Z,8.25
2023-04-11T03:16:53.528Z,8.08
2023-04-11T03:19:21.479Z,8.01
2023-04-11T03:21:49.387Z,8.05
2023-04-11T03:24:17.869Z,7.97
2023-04-11T03:26:47.143Z,8.05
2023-04-11T03:29:15.070Z,8.07
2023-04-11T03:31:43.097Z,8.10
2023-04-11T03:34:11.069Z,8.13
2023-04-11T03:36:39.059Z,8.12
2023-04-11T03:39:06.958Z,8.11
2023-04-11T03:41:34.916Z,8.08
2023-04-11T03:44:04.517Z,8.09
2023-04-11T03:46:32.492Z,8.05
2023-04-11T03:49:00.441Z,7.78
2023-04-11T03:51:28.359Z,7.84
2023-04-11T03:53:56.249Z,7.91
2023-04-11T03:56:24.387Z,7.89
2023-04-11T03:58:52.532Z,7.73
2023-04-11T04:01:21.861Z,7.77
2023-04-11T04:03:49.996Z,7.63
2023-04-11T04:06:18.182Z,7.58
2023-04-11T04:08:46.278Z,7.71
2023-04-11T04:11:14.184Z,7.62
2023-04-11T04:13:42.081Z,7.69
2023-04-11T04:16:10.711Z,7.65
2023-04-11T04:18:40.090Z,7.73
2023-04-11T04:21:08.663Z,7.63
2023-04-11T04:23:39.210Z,7.62
2023-04-11T04:26:07.690Z,7.50
2023-04-11T04:28:35.601Z,7.59
2023-04-11T04:31:04.159Z,7.53
2023-04-11T04:33:33.128Z,7.60
2023-04-11T04:36:04.387Z,7.56
2023-04-11T04:38:32.994Z,7.61
2023-04-11T04:41:00.937Z,7.37
2023-04-11T04:43:32.367Z,7.39
2023-04-11T04:46:00.507Z,7.43
2023-04-11T04:48:28.448Z,7.34
2023-04-11T04:50:56.391Z,7.37
2023-04-11T04:53:25.887Z,7.25
2023-04-11T04:55:53.775Z,7.29
2023-04-11T04:58:21.717Z,7.25
2023-04-11T05:00:55.942Z,7.27
2023-04-11T05:03:24.318Z,7.34
2023-04-11T05:05:52.401Z,7.34
2023-04-11T05:08:21.363Z,7.35
2023-04-11T05:10:50.684Z,7.51
2023-04-11T05:13:18.615Z,7.33
2023-04-11T05:15:49.180Z,7.36
2023-04-11T05:18:17.096Z,7.41
2023-04-11T05:20:45.054Z,7.30
2023-04-11T05:23:12.938Z,7.29
2023-04-11T05:25:40.864Z,7.45
2023-04-11T05:28:10.167Z,7.43
2023-04-11T05:30:38.149Z,7.49
2023-04-11T05:33:06.237Z,7.67
2023-04-11T05:35:34.179Z,7.65
2023-04-11T05:38:02.106Z,7.58
2023-04-11T05:40:30.032Z,7.64
2023-04-11T05:42:57.926Z,7.70
2023-04-11T05:45:27.264Z,7.75
2023-04-11T05:47:56.834Z,7.77
2023-04-11T05:50:25.061Z,7.71
2023-04-11T05:52:52.990Z,7.66
2023-04-11T05:55:20.952Z,7.71
2023-04-11T05:57:48.861Z,7.85
2023-04-11T06:00:18.276Z,7.90
2023-04-11T06:02:49.345Z,7.94
2023-04-11T06:05:18.065Z,7.95
2023-04-11T06:07:46.521Z,7.98
2023-04-11T06:10:14.840Z,7.89
2023-04-11T06:12:42.737Z,7.85
2023-04-11T06:15:11.885Z,7.88
2023-04-11T06:17:39.837Z,7.97
2023-04-11T06:20:10.444Z,7.91
2023-04-11T06:22:40.212Z,7.96
2023-04-11T06:25:08.878Z,8.01
2023-04-11T06:27:37.038Z,7.99
2023-04-11T06:30:06.081Z,8.01
2023-04-11T06:32:34.044Z,8.02
2023-04-11T06:35:02.087Z,7.89
2023-04-11T06:37:31.486Z,7.86
2023-04-11T06:40:00.327Z,7.48
2023-04-11T06:42:28.948Z,7.22
2023-04-11T06:44:56.968Z,7.31
2023-04-11T06:47:25.010Z,7.25
2023-04-11T06:49:53.042Z,7.34
2023-04-11T06:52:20.955Z,7.39
2023-04-11T06:54:50.901Z,7.14
2023-04-11T06:57:19.200Z,7.17
2023-04-11T06:59:47.099Z,7.11
2023-04-11T07:02:15.623Z,7.20
2023-04-11T07:04:43.786Z,7.08
2023-04-11T07:07:11.744Z,6.92
2023-04-11T07:09:39.674Z,7.09
2023-04-11T07:12:09.123Z,7.09
2023-04-11T07:14:37.131Z,7.18
2023-04-11T07:17:05.080Z,7.10
2023-04-11T07:19:32.984Z,6.99
2023-04-11T07:22:01.667Z,7.09
2023-04-11T07:24:31.153Z,7.09
2023-04-11T07:27:01.831Z,6.89
2023-04-11T07:29:32.320Z,7.09
2023-04-11T07:32:00.360Z,7.18
2023-04-11T07:34:28.384Z,7.27
2023-04-11T07:37:00.838Z,7.20
2023-04-11T07:39:28.919Z,7.16
2023-04-11T07:41:57.170Z,7.16
2023-04-11T07:44:27.152Z,7.23
2023-04-11T07:46:56.625Z,7.32
2023-04-11T07:49:24.587Z,7.32
2023-04-11T07:51:52.493Z,7.28
2023-04-11T07:54:20.386Z,7.40
2023-04-11T07:56:48.376Z,7.34
2023-04-11T07:59:17.366Z,7.45
2023-04-11T08:01:45.393Z,7.50
2023-04-11T08:04:15.257Z,7.43
2023-04-11T08:06:43.539Z,7.38
2023-04-11T08:09:11.467Z,7.54
2023-04-11T08:11:39.574Z,7.55
2023-04-11T08:14:07.522Z,7.63
2023-04-11T08:16:36.043Z,7.77
2023-04-11T08:19:06.954Z,7.79
2023-04-11T08:21:36.296Z,7.86
2023-04-11T08:24:04.274Z,7.88
2023-04-11T08:26:32.228Z,7.91
2023-04-11T08:29:00.168Z,8.03
2023-04-11T08:31:28.516Z,8.08
2023-04-11T08:33:59.287Z,8.21
2023-04-11T08:36:28.772Z,8.17
2023-04-11T08:39:00.196Z,8.25
2023-04-11T08:41:30.714Z,8.43
2023-04-11T08:43:59.384Z,8.48
2023-04-11T08:46:27.463Z,8.50
2023-04-11T08:48:56.497Z,8.72
2023-04-11T08:51:26.952Z,8.74
2023-04-11T08:53:59.866Z,8.75
2023-04-11T08:56:28.343Z,8.88
2023-04-11T08:58:56.466Z,8.82
2023-04-11T09:01:29.799Z,8.82
2023-04-11T09:03:58.643Z,8.95
2023-04-11T09:06:30.727Z,8.87
2023-04-11T09:09:01.681Z,8.88
2023-04-11T09:11:29.951Z,8.83
2023-04-11T09:14:07.513Z,9.01
2023-04-11T09:16:35.925Z,8.81
2023-04-11T09:19:04.601Z,8.85
2023-04-11T09:21:32.660Z,8.83
2023-04-11T09:24:17.525Z,8.69
2023-04-11T09:26:45.782Z,8.72
2023-04-11T09:29:22.444Z,8.88
2023-04-11T09:31:50.784Z,9.10
2023-04-11T09:34:26.000Z,9.26
2023-04-11T09:36:56.321Z,9.26
2023-04-11T09:39:28.597Z,9.07
2023-04-11T09:41:56.838Z,9.01
2023-04-11T09:44:36.979Z,9.01
2023-04-11T09:47:05.222Z,8.82
2023-04-11T09:49:34.563Z,8.81
2023-04-11T09:52:03.086Z,8.45
2023-04-11T09:54:33.738Z,8.52
2023-04-11T09:57:01.872Z,8.36
2023-04-11T09:59:31.304Z,8.61
2023-04-11T10:01:59.858Z,8.56
2023-04-11T10:04:28.765Z,8.75
2023-04-11T10:07:07.397Z,8.50
2023-04-11T10:09:39.342Z,8.60
2023-04-11T10:12:07.882Z,8.51
2023-04-11T10:14:45.747Z,8.49
2023-04-11T10:17:18.530Z,8.47
2023-04-11T10:19:50.960Z,8.58
2023-04-11T10:22:58.650Z,8.70
2023-04-11T10:25:29.128Z,8.66
2023-04-11T10:28:01.147Z,8.59
2023-04-11T10:31:04.087Z,8.46
2023-04-11T10:33:32.518Z,8.62
2023-04-11T10:36:03.788Z,8.76
2023-04-11T10:38:51.294Z,8.85
2023-04-11T10:41:27.247Z,8.82
2023-04-11T10:44:18.591Z,8.95
2023-04-11T10:46:48.727Z,8.77
2023-04-11T10:49:35.040Z,8.75
2023-04-11T10:52:22.938Z,8.85
2023-04-11T10:54:51.819Z,8.92
2023-04-11T10:57:21.738Z,8.91
2023-04-11T11:00:10.688Z,8.82
2023-04-11T11:02:40.563Z,8.91
2023-04-11T11:05:22.661Z,8.85
2023-04-11T11:07:52.481Z,8.84
2023-04-11T11:10:39.461Z,8.93
2023-04-11T11:13:09.033Z,8.94
2023-04-11T11:15:38.571Z,9.13
2023-04-11T11:18:09.437Z,9.15
2023-04-11T11:20:38.050Z,9.12
2023-04-11T11:23:07.317Z,9.17
2023-04-11T11:25:35.773Z,9.18
2023-04-11T11:28:05.645Z,9.13
2023-04-11T11:30:35.559Z,9.27
2023-04-11T11:33:17.247Z,9.32
2023-04-11T11:35:47.637Z,9.57
2023-04-11T11:38:15.632Z,9.82
2023-04-11T11:40:43.711Z,10.00
2023-04-11T11:43:11.672Z,9.96
2023-04-11T11:45:41.156Z,9.93
2023-04-11T11:48:09.132Z,9.92
2023-04-11T11:50:37.503Z,9.82
2023-04-11T11:53:15.080Z,9.68
2023-04-11T11:55:43.907Z,9.55
2023-04-11T11:58:12.924Z,9.53
2023-04-11T12:00:42.885Z,9.38
2023-04-11T12:03:11.282Z,9.24
2023-04-11T12:05:39.523Z,9.27
2023-04-11T12:08:09.502Z,9.41
2023-04-11T12:10:40.573Z,9.23
2023-04-11T12:13:16.290Z,9.37
2023-04-11T12:15:51.389Z,9.08
2023-04-11T12:18:21.937Z,8.44
2023-04-11T12:20:50.306Z,7.83
2023-04-11T12:23:18.679Z,7.77
2023-04-11T12:25:47.120Z,7.36
2023-04-11T12:28:15.378Z,7.68
2023-04-11T12:30:43.462Z,7.47
2023-04-11T12:33:12.837Z,7.30
2023-04-11T12:35:40.860Z,7.21
2023-04-11T12:38:09.726Z,7.39
2023-04-11T12:40:38.715Z,7.49
2023-04-11T12:43:06.618Z,7.62
2023-04-11T12:45:34.813Z,7.76
2023-04-11T12:48:02.718Z,7.93
2023-04-11T12:50:32.069Z,7.91
2023-04-11T12:52:59.997Z,8.01
2023-04-11T12:55:28.738Z,8.10
2023-04-11T12:57:56.757Z,8.10
2023-04-11T13:00:25.388Z,7.98
2023-04-11T13:02:57.970Z,8.15
2023-04-11T13:05:26.292Z,8.19
2023-04-11T13:07:55.616Z,8.38
2023-04-11T13:10:23.764Z,8.35
2023-04-11T13:12:53.343Z,8.30
2023-04-11T13:15:21.373Z,8.25
2023-04-11T13:17:49.400Z,8.18
2023-04-11T13:20:17.589Z,8.17
2023-04-11T13:22:45.551Z,8.13
2023-04-11T13:25:14.988Z,7.98
2023-04-11T13:27:42.977Z,8.02
2023-04-11T13:30:11.861Z,7.94
2023-04-11T13:32:40.059Z,8.03
2023-04-11T13:35:09.089Z,8.19
2023-04-11T13:37:37.066Z,8.06
2023-04-11T13:40:08.638Z,7.95
2023-04-11T13:42:38.023Z,8.07
2023-04-11T13:45:06.570Z,8.14
2023-04-11T13:47:37.641Z,8.17
2023-04-11T13:50:08.470Z,8.28
2023-04-11T13:52:36.472Z,8.29
2023-04-11T13:55:04.911Z,8.46
2023-04-11T13:57:32.814Z,8.44
2023-04-11T14:00:05.465Z,8.60
2023-04-11T14:02:33.572Z,8.76
2023-04-11T14:05:01.805Z,8.98
2023-04-11T14:07:30.112Z,9.02
2023-04-11T14:09:57.980Z,8.89
2023-04-11T14:12:25.907Z,8.70
2023-04-11T14:14:53.789Z,8.75
2023-04-11T14:17:23.226Z,8.83
2023-04-11T14:19:51.212Z,8.17
2023-04-11T14:22:19.173Z,8.01
2023-04-11T14:24:47.104Z,8.06
2023-04-11T14:27:15.064Z,8.02
2023-04-11T14:29:43.005Z,7.76
2023-04-11T14:32:11.002Z,7.85
2023-04-11T14:34:40.372Z,7.64
2023-04-11T14:37:08.781Z,7.36
2023-04-11T14:39:39.029Z,7.26
2023-04-11T14:42:07.242Z,7.15
2023-04-11T14:44:35.677Z,7.12
2023-04-11T14:47:04.440Z,7.13
2023-04-11T14:49:32.330Z,7.15
2023-04-11T14:52:02.361Z,7.17
2023-04-11T14:54:30.261Z,7.46
2023-04-11T14:56:58.637Z,7.83
2023-04-11T14:59:27.264Z,8.02
2023-04-11T15:01:55.212Z,8.18
2023-04-11T15:04:23.354Z,8.15
2023-04-11T15:06:51.341Z,8.16
2023-04-11T15:09:22.501Z,7.92
2023-04-11T15:11:50.458Z,7.79
2023-04-11T15:14:20.145Z,7.40
2023-04-11T15:16:48.048Z,6.75
2023-04-11T15:19:15.972Z,6.93
2023-04-11T15:21:46.162Z,6.72
2023-04-11T15:24:14.109Z,6.81
2023-04-11T15:26:44.499Z,7.49
2023-04-11T15:29:15.769Z,7.82
2023-04-11T15:31:43.821Z,7.81
2023-04-11T15:34:14.129Z,7.65
2023-04-11T15:36:42.596Z,7.68
2023-04-11T15:39:10.527Z,7.77
2023-04-11T15:41:38.457Z,7.75
2023-04-11T15:44:08.009Z,7.76
2023-04-11T15:46:36.082Z,7.67
2023-04-11T15:49:04.018Z,7.78
2023-04-11T15:51:32.056Z,7.56
2023-04-11T15:53:59.998Z,7.52
2023-04-11T15:56:28.294Z,7.60
2023-04-11T15:58:56.473Z,7.65
2023-04-11T16:01:26.177Z,7.60
2023-04-11T16:03:55.352Z,7.42
2023-04-11T16:06:23.447Z,7.52
2023-04-11T16:08:51.763Z,7.48
2023-04-11T16:11:19.706Z,7.50
2023-04-11T16:13:47.839Z,7.37
2023-04-11T16:16:15.929Z,7.32
2023-04-11T16:18:45.302Z,7.34
2023-04-11T16:21:14.447Z,7.30
2023-04-11T16:23:42.388Z,7.20
2023-04-11T16:26:10.545Z,7.31
2023-04-11T16:28:38.437Z,7.43
2023-04-11T16:31:09.377Z,7.63
2023-04-11T16:33:37.315Z,8.11
2023-04-11T16:36:07.551Z,8.54
2023-04-11T16:38:35.478Z,8.14
2023-04-11T16:41:03.494Z,7.87
2023-04-11T16:43:31.443Z,7.60
2023-04-11T16:46:02.286Z,7.65
2023-04-11T16:48:31.653Z,7.40
2023-04-11T16:50:59.609Z,7.49
2023-04-11T16:53:28.914Z,7.46
2023-04-11T16:55:57.995Z,7.33
2023-04-11T16:58:27.492Z,7.45
2023-04-11T17:00:55.417Z,7.30
2023-04-11T17:03:23.715Z,7.08
2023-04-11T17:05:54.727Z,7.10
2023-04-11T17:08:22.707Z,6.97
2023-04-11T17:10:52.069Z,7.16
2023-04-11T17:13:20.066Z,7.30
2023-04-11T17:15:47.999Z,7.48
2023-04-11T17:18:15.933Z,7.32
2023-04-11T17:20:46.672Z,7.51
2023-04-11T17:23:14.731Z,7.32
2023-04-11T17:25:42.649Z,7.33
2023-04-11T17:28:12.161Z,7.31
2023-04-11T17:30:40.106Z,7.30
2023-04-11T17:33:08.704Z,7.28
2023-04-11T17:35:36.812Z,7.23
2023-04-11T17:38:04.768Z,7.16
2023-04-11T17:40:32.714Z,7.22
2023-04-11T17:43:00.660Z,7.19
2023-04-11T17:45:29.977Z,7.21
2023-04-11T17:47:57.902Z,7.17
2023-04-11T17:50:25.908Z,7.27
2023-04-11T17:52:54.125Z,7.32
2023-04-11T17:55:22.051Z,7.13
2023-04-11T17:57:50.039Z,6.97
2023-04-11T18:00:22.149Z,6.77
2023-04-11T18:02:52.812Z,6.83
2023-04-11T18:05:24.398Z,6.78
2023-04-11T18:07:54.768Z,6.77
2023-04-11T18:10:23.124Z,6.74
2023-04-11T18:12:52.558Z,6.81
2023-04-11T18:15:21.117Z,6.87
2023-04-11T18:17:49.390Z,6.90
2023-04-11T18:20:18.810Z,6.78
2023-04-11T18:22:47.935Z,6.71
2023-04-11T18:25:15.919Z,6.67
2023-04-11T18:27:43.844Z,6.59
2023-04-11T18:30:13.433Z,6.57
2023-04-11T18:32:46.544Z,6.50
2023-04-11T18:35:21.305Z,6.62
2023-04-11T18:37:49.541Z,6.62
2023-04-11T18:40:18.111Z,6.66
2023-04-11T18:42:48.204Z,6.78
2023-04-11T18:45:18.130Z,6.99
2023-04-11T18:47:46.436Z,7.22
2023-04-11T18:50:14.826Z,7.24
2023-04-11T18:52:45.519Z,6.99
2023-04-11T18:55:14.259Z,6.69
2023-04-11T18:57:47.018Z,6.62
2023-04-11T19:00:19.000Z,6.65
2023-04-11T19:02:47.687Z,6.75
2023-04-11T19:05:16.503Z,6.92
2023-04-11T19:07:46.703Z,6.95
2023-04-11T19:10:14.843Z,7.09
2023-04-11T19:12:42.785Z,7.17
2023-04-11T19:15:11.774Z,7.17
2023-04-11T19:17:39.890Z,6.88
2023-04-11T19:20:12.375Z,6.58
2023-04-11T19:22:41.277Z,6.65
2023-04-11T19:25:12.130Z,6.66
2023-04-11T19:27:41.648Z,6.48
2023-04-11T19:30:11.553Z,6.64
2023-04-11T19:32:43.205Z,6.79
2023-04-11T19:35:11.866Z,6.73
2023-04-11T19:37:40.215Z,6.50
2023-04-11T19:40:12.380Z,6.14
2023-04-11T19:42:40.593Z,6.18
2023-04-11T19:45:10.558Z,6.36
2023-04-11T19:47:39.768Z,6.25
2023-04-11T19:50:09.070Z,6.22
2023-04-11T19:52:37.007Z,6.08
2023-04-11T19:55:05.391Z,6.01
2023-04-11T19:57:34.719Z,6.10
2023-04-11T20:00:09.408Z,6.13
2023-04-11T20:02:37.600Z,5.99
2023-04-11T20:05:06.953Z,5.83
2023-04-11T20:07:35.209Z,5.81
2023-04-11T20:10:04.461Z,5.94
2023-04-11T20:12:32.368Z,6.15
2023-04-11T20:15:01.640Z,6.25
2023-04-11T20:17:29.730Z,6.17
2023-04-11T20:19:57.840Z,5.98
2023-04-11T20:22:25.918Z,6.09
2023-04-11T20:24:53.803Z,6.24
2023-04-11T20:27:21.887Z,6.36
2023-04-11T20:29:49.913Z,6.07
2023-04-11T20:32:19.317Z,5.99
2023-04-11T20:34:47.256Z,6.09
2023-04-11T20:37:17.049Z,6.18
2023-04-11T20:39:46.812Z,6.22
2023-04-11T20:42:15.322Z,6.24
2023-04-11T20:44:43.828Z,6.11
2023-04-11T20:47:11.756Z,5.99
2023-04-11T20:49:41.630Z,6.00
2023-04-11T20:52:11.018Z,5.96
2023-04-11T20:54:39.381Z,5.59
2023-04-11T20:57:07.463Z,5.52
2023-04-11T20:59:35.592Z,5.53
2023-04-11T21:02:03.583Z,5.70
2023-04-11T21:04:31.992Z,5.79
2023-04-11T21:07:01.348Z,5.77
2023-04-11T21:09:29.247Z,5.69
2023-04-11T21:11:57.168Z,5.67
2023-04-11T21:14:25.082Z,5.75
2023-04-11T21:16:53.020Z,5.52
2023-04-11T21:19:20.906Z,5.19
2023-04-11T21:21:48.836Z,4.95
2023-04-11T21:24:20.203Z,5.01
2023-04-11T21:26:48.302Z,5.02
2023-04-11T21:29:16.206Z,5.09
2023-04-11T21:31:44.233Z,5.35
2023-04-11T21:34:12.217Z,5.18
2023-04-11T21:36:40.254Z,5.18
2023-04-11T21:39:08.525Z,5.11
2023-04-11T21:41:37.828Z,5.15
2023-04-11T21:44:05.817Z,5.26
2023-04-11T21:46:34.488Z,5.35
2023-04-11T21:49:02.500Z,5.28
2023-04-11T21:51:30.864Z,5.21
2023-04-11T21:53:59.091Z,5.15
2023-04-11T21:56:27.325Z,5.16
2023-04-11T21:58:56.579Z,5.15
2023-04-11T22:01:24.605Z,5.14
2023-04-11T22:03:52.758Z,5.01
2023-04-11T22:06:22.691Z,4.94
2023-04-11T22:08:51.373Z,5.00
2023-04-11T22:11:20.375Z,4.81
2023-04-11T22:13:48.328Z,4.62
2023-04-11T22:16:17.651Z,4.79
2023-04-11T22:18:49.141Z,4.90
2023-04-11T22:21:19.778Z,4.70
2023-04-11T22:23:49.827Z,4.58
2023-04-11T22:26:17.747Z,4.42
2023-04-11T22:28:46.315Z,4.50
2023-04-11T22:31:14.651Z,4.62
2023-04-11T22:33:44.007Z,4.59
2023-04-11T22:36:11.971Z,4.65
2023-04-11T22:38:40.306Z,4.47
2023-04-11T22:41:14.852Z,4.41
2023-04-11T22:43:42.889Z,4.51
2023-04-11T22:46:10.869Z,4.64
2023-04-11T22:48:39.029Z,4.53
2023-04-11T22:51:09.248Z,4.55
2023-04-11T22:53:42.071Z,4.50
2023-04-11T22:56:11.056Z,4.51
2023-04-11T22:58:39.779Z,4.58
2023-04-11T23:01:08.170Z,4.66
2023-04-11T23:03:36.658Z,4.48
2023-04-11T23:06:04.668Z,4.44
2023-04-11T23:08:33.991Z,4.47
2023-04-11T23:11:01.887Z,4.30
2023-04-11T23:13:29.930Z,4.36
2023-04-11T23:15:58.046Z,4.52
2023-04-11T23:18:26.022Z,4.51
2023-04-11T23:20:53.909Z,4.50
2023-04-11T23:23:21.815Z,4.31
2023-04-11T23:25:51.248Z,4.37
2023-04-11T23:28:19.187Z,4.39
2023-04-11T23:30:47.120Z,4.39
2023-04-11T23:33:15.281Z,4.31
2023-04-11T23:35:43.294Z,4.42
2023-04-11T23:38:11.624Z,4.37
2023-04-11T23:40:39.829Z,4.34
2023-04-11T23:43:09.296Z,4.40
2023-04-11T23:45:37.173Z,4.17
2023-04-11T23:48:05.485Z,4.20
2023-04-11T23:50:33.449Z,4.41
2023-04-11T23:53:01.465Z,4.31
2023-04-11T23:55:29.912Z,4.14
2023-04-11T23:57:57.815Z,4.00
